createdAt,value
2019-03-27T00:00:31.187Z,1.70
2019-03-27T00:03:01.231Z,3.00
2019-03-27T00:05:31.274Z,1.97
2019-03-27T00:08:01.334Z,2.23
2019-03-27T00:10:31.381Z,2.47
2019-03-27T00:13:01.450Z,3.10
2019-03-27T00:15:31.467Z,1.70
2019-03-27T00:18:01.495Z,2.90
2019-03-27T00:20:31.561Z,2.73
2019-03-27T00:23:01.589Z,2.30
2019-03-27T00:25:31.676Z,2.60
2019-03-27T00:28:01.698Z,2.03
2019-03-27T00:30:31.745Z,2.53
2019-03-27T00:33:01.782Z,2.40
2019-03-27T00:35:31.804Z,2.40
2019-03-27T00:38:03.316Z,2.90
2019-03-27T00:40:33.345Z,2.47
2019-03-27T00:43:03.387Z,2.90
2019-03-27T00:45:33.411Z,2.03
2019-03-27T00:48:03.478Z,2.23
2019-03-27T00:50:33.508Z,3.60
2019-03-27T00:53:03.545Z,2.67
2019-03-27T00:55:33.601Z,2.00
2019-03-27T00:58:03.659Z,2.07
2019-03-27T01:00:50.835Z,2.47
2019-03-27T01:03:20.884Z,2.27
2019-03-27T01:05:50.919Z,2.47
2019-03-27T01:08:21.012Z,2.33
2019-03-27T01:10:51.042Z,2.33
2019-03-27T01:13:21.181Z,2.87
2019-03-27T01:15:52.318Z,2.60
2019-03-27T01:18:22.393Z,2.70
2019-03-27T01:20:53.029Z,2.67
2019-03-27T01:23:23.109Z,2.47
2019-03-27T01:25:53.158Z,2.70
2019-03-27T01:28:23.176Z,3.63
2019-03-27T01:30:53.258Z,2.63
2019-03-27T01:33:23.268Z,2.70
2019-03-27T01:35:53.324Z,3.37
2019-03-27T01:38:28.779Z,2.70
2019-03-27T01:40:57.370Z,2.70
2019-03-27T01:43:27.405Z,2.63
2019-03-27T01:45:57.457Z,3.20
2019-03-27T01:48:27.522Z,3.37
2019-03-27T01:50:57.670Z,3.43
2019-03-27T01:53:29.015Z,2.80
2019-03-27T01:56:00.116Z,2.80
2019-03-27T01:58:30.129Z,2.47
2019-03-27T02:01:00.188Z,2.97
2019-03-27T02:03:30.227Z,2.90
2019-03-27T02:06:00.314Z,3.20
2019-03-27T02:08:30.306Z,3.33
2019-03-27T02:11:00.367Z,2.60
2019-03-27T02:13:30.426Z,3.27
2019-03-27T02:16:06.878Z,2.43
2019-03-27T02:18:32.535Z,2.80
2019-03-27T02:21:02.527Z,2.80
2019-03-27T02:23:32.565Z,3.10
2019-03-27T02:26:03.739Z,2.87
2019-03-27T02:28:33.739Z,3.57
2019-03-27T02:31:03.791Z,3.77
2019-03-27T02:33:33.845Z,2.33
2019-03-27T02:36:03.944Z,3.13
2019-03-27T02:38:33.980Z,3.37
2019-03-27T02:41:03.984Z,3.20
2019-03-27T02:43:34.051Z,3.50
2019-03-27T02:46:04.091Z,3.13
2019-03-27T02:48:35.384Z,3.83
2019-03-27T02:51:05.450Z,3.30
2019-03-27T02:53:35.500Z,3.47
2019-03-27T02:56:05.511Z,3.73
2019-03-27T02:58:35.583Z,4.10
2019-03-27T03:01:05.818Z,3.97
2019-03-27T03:03:35.897Z,4.00
2019-03-27T03:06:05.964Z,3.67
2019-03-27T03:08:35.966Z,3.33
2019-03-27T03:11:08.167Z,4.23
2019-03-27T03:13:38.182Z,3.67
2019-03-27T03:16:08.235Z,4.30
2019-03-27T03:18:38.310Z,4.10
2019-03-27T03:21:08.384Z,4.17
2019-03-27T03:23:38.385Z,4.90
2019-03-27T03:26:08.422Z,4.43
2019-03-27T03:28:38.458Z,5.03
2019-03-27T03:31:08.453Z,4.60
2019-03-27T03:33:38.560Z,3.60
2019-03-27T03:36:10.631Z,4.73
2019-03-27T03:38:40.675Z,4.37
2019-03-27T03:41:10.775Z,4.00
2019-03-27T03:43:40.794Z,4.90
2019-03-27T03:46:10.846Z,3.83
2019-03-27T03:48:40.903Z,3.47
2019-03-27T03:51:11.012Z,5.10
2019-03-27T03:53:42.934Z,3.13
2019-03-27T03:56:14.472Z,3.50
2019-03-27T03:58:44.645Z,4.53
2019-03-27T04:01:15.687Z,3.90
2019-03-27T04:03:47.252Z,3.83
2019-03-27T04:06:17.600Z,4.53
2019-03-27T04:08:47.635Z,3.97
2019-03-27T04:11:17.683Z,3.73
2019-03-27T04:13:47.718Z,4.47
2019-03-27T04:16:17.737Z,3.70
2019-03-27T04:18:47.783Z,4.77
2019-03-27T04:21:17.805Z,4.83
2019-03-27T04:23:49.787Z,5.43
2019-03-27T04:26:19.478Z,4.33
2019-03-27T04:28:49.527Z,4.03
2019-03-27T04:31:19.525Z,4.77
2019-03-27T04:33:49.580Z,5.70
2019-03-27T04:36:19.637Z,4.50
2019-03-27T04:38:49.664Z,5.20
2019-03-27T04:41:19.681Z,5.10
2019-03-27T04:43:49.758Z,4.47
2019-03-27T04:46:19.809Z,5.00
2019-03-27T04:48:49.927Z,5.50
2019-03-27T04:51:19.958Z,6.50
2019-03-27T04:53:50.045Z,6.73
2019-03-27T04:56:20.157Z,6.47
2019-03-27T04:58:50.200Z,5.70
2019-03-27T05:01:20.348Z,7.40
2019-03-27T05:03:50.699Z,6.27
2019-03-27T05:06:22.641Z,6.03
2019-03-27T05:08:53.843Z,7.07
2019-03-27T05:11:23.931Z,6.87
2019-03-27T05:13:53.947Z,6.90
2019-03-27T05:16:24.018Z,6.13
2019-03-27T05:18:54.074Z,7.03
2019-03-27T05:21:24.137Z,6.17
2019-03-27T05:23:54.138Z,5.97
2019-03-27T05:26:24.199Z,6.77
2019-03-27T05:28:54.227Z,6.40
2019-03-27T05:31:24.254Z,7.67
2019-03-27T05:33:54.267Z,6.90
2019-03-27T05:36:24.323Z,7.73
2019-03-27T05:38:54.369Z,8.47
2019-03-27T05:41:24.433Z,6.83
2019-03-27T05:43:55.627Z,8.23
2019-03-27T05:46:26.687Z,5.93
2019-03-27T05:48:56.830Z,8.53
2019-03-27T05:51:26.955Z,7.77
2019-03-27T05:53:57.025Z,8.93
2019-03-27T05:56:27.030Z,8.93
2019-03-27T05:58:57.075Z,7.50
2019-03-27T06:01:29.072Z,7.67
2019-03-27T06:03:59.117Z,7.90
2019-03-27T06:06:29.209Z,7.90
2019-03-27T06:08:59.319Z,10.07
2019-03-27T06:11:29.380Z,9.63
2019-03-27T06:13:59.430Z,7.17
2019-03-27T06:16:31.501Z,9.37
2019-03-27T06:19:01.527Z,6.93
2019-03-27T06:21:31.575Z,8.90
2019-03-27T06:24:01.619Z,8.60
2019-03-27T06:26:31.676Z,8.00
2019-03-27T06:29:01.719Z,9.17
2019-03-27T06:31:38.837Z,9.90
2019-03-27T06:34:10.198Z,8.77
2019-03-27T06:36:40.228Z,10.50
2019-03-27T06:39:12.056Z,8.53
2019-03-27T06:41:42.103Z,8.70
2019-03-27T06:44:12.126Z,10.43
2019-03-27T06:46:42.182Z,9.53
2019-03-27T06:49:12.202Z,9.07
2019-03-27T06:51:42.237Z,9.73
2019-03-27T06:54:14.338Z,10.67
2019-03-27T06:56:44.399Z,11.10
2019-03-27T06:59:14.456Z,11.30
2019-03-27T07:01:44.525Z,10.27
2019-03-27T07:04:14.546Z,8.23
2019-03-27T07:06:44.635Z,10.93
2019-03-27T07:09:14.674Z,10.07
2019-03-27T07:11:44.688Z,10.40
2019-03-27T07:14:14.736Z,9.80
2019-03-27T07:16:44.750Z,9.87
2019-03-27T07:19:16.102Z,11.63
2019-03-27T07:21:46.136Z,10.13
2019-03-27T07:24:16.163Z,10.87
2019-03-27T07:26:46.212Z,9.90
2019-03-27T07:29:18.947Z,9.60
2019-03-27T07:31:47.966Z,10.23
2019-03-27T07:34:21.062Z,9.20
2019-03-27T07:36:51.091Z,10.43
2019-03-27T07:39:21.156Z,9.20
2019-03-27T07:41:51.190Z,10.20
2019-03-27T07:44:21.302Z,10.37
2019-03-27T07:46:51.326Z,9.97
2019-03-27T07:49:21.342Z,10.93
2019-03-27T07:51:51.427Z,10.70
2019-03-27T07:54:21.586Z,9.30
2019-03-27T07:56:51.609Z,10.67
2019-03-27T07:59:21.686Z,10.83
2019-03-27T08:01:53.074Z,11.53
2019-03-27T08:04:23.131Z,12.23
2019-03-27T08:06:55.529Z,11.23
2019-03-27T08:09:25.590Z,12.30
2019-03-27T08:11:55.654Z,12.27
2019-03-27T08:14:25.687Z,10.83
2019-03-27T08:16:57.841Z,12.30
2019-03-27T08:19:27.902Z,12.67
2019-03-27T08:21:57.919Z,12.20
2019-03-27T08:24:28.006Z,11.20
2019-03-27T08:27:00.104Z,11.10
2019-03-27T08:29:31.357Z,10.50
2019-03-27T08:32:02.461Z,10.17
2019-03-27T08:34:32.499Z,11.07
2019-03-27T08:37:02.557Z,9.57
2019-03-27T08:39:32.587Z,11.23
2019-03-27T08:42:04.679Z,12.70
2019-03-27T08:44:34.744Z,11.33
2019-03-27T08:47:05.394Z,11.07
2019-03-27T08:49:35.478Z,11.03
2019-03-27T08:52:05.558Z,11.47
2019-03-27T08:54:35.594Z,9.87
2019-03-27T08:57:05.634Z,12.07
2019-03-27T08:59:35.667Z,11.77
2019-03-27T09:02:05.749Z,10.10
2019-03-27T09:04:36.109Z,10.70
2019-03-27T09:07:06.694Z,11.50
2019-03-27T09:09:37.070Z,10.60
2019-03-27T09:12:07.403Z,10.77
2019-03-27T09:14:37.817Z,11.47
2019-03-27T09:17:09.330Z,11.07
2019-03-27T09:19:39.437Z,7.37
2019-03-27T09:22:09.524Z,9.63
2019-03-27T09:24:39.598Z,11.07
2019-03-27T09:27:10.340Z,10.00
2019-03-27T09:29:40.465Z,10.33
2019-03-27T09:32:10.726Z,10.10
2019-03-27T09:34:41.382Z,8.80
2019-03-27T09:37:12.058Z,12.23
2019-03-27T09:39:42.142Z,9.53
2019-03-27T09:42:15.902Z,7.97
2019-03-27T09:44:46.023Z,8.50
2019-03-27T09:49:49.697Z,7.30
2019-03-27T09:52:17.142Z,8.33
2019-03-27T09:54:47.213Z,8.20
2019-03-27T09:57:17.229Z,6.92
2019-03-27T09:59:47.417Z,8.95
2019-03-27T10:02:17.487Z,7.00
2019-03-27T10:04:47.620Z,7.85
2019-03-27T10:07:17.719Z,8.00
2019-03-27T10:09:50.380Z,9.03
2019-03-27T10:12:19.615Z,7.30
2019-03-27T10:14:49.669Z,7.08
2019-03-27T10:17:19.720Z,5.85
2019-03-27T10:20:02.559Z,6.47
2019-03-27T10:22:21.469Z,7.03
2019-03-27T10:24:51.495Z,6.00
2019-03-27T10:27:21.558Z,6.12
2019-03-27T10:29:51.598Z,6.67
2019-03-27T10:32:21.877Z,5.58
2019-03-27T10:34:54.194Z,5.92
2019-03-27T10:37:24.281Z,6.17
2019-03-27T10:39:55.370Z,5.85
2019-03-27T10:42:25.435Z,5.35
2019-03-27T10:44:55.495Z,5.67
2019-03-27T10:47:25.626Z,6.22
2019-03-27T10:49:55.659Z,5.22
2019-03-27T10:52:25.734Z,5.10
2019-03-27T10:54:55.810Z,4.92
2019-03-27T10:57:25.916Z,5.05
2019-03-27T10:59:55.972Z,4.42
2019-03-27T11:02:26.043Z,4.67
2019-03-27T11:04:56.094Z,4.75
2019-03-27T11:07:26.186Z,5.03
2019-03-27T11:09:56.296Z,4.90
2019-03-27T11:12:26.318Z,4.22
2019-03-27T11:14:56.381Z,4.00
2019-03-27T11:17:26.457Z,4.10
2019-03-27T11:19:56.535Z,4.22
2019-03-27T11:22:26.602Z,3.37
2019-03-27T11:24:57.919Z,4.30
2019-03-27T11:27:28.005Z,4.03
2019-03-27T11:29:58.022Z,4.35
2019-03-27T11:32:28.099Z,4.37
2019-03-27T11:34:58.174Z,2.98
2019-03-27T11:37:28.260Z,3.65
2019-03-27T11:39:58.301Z,3.85
2019-03-27T11:42:29.017Z,3.52
2019-03-27T11:44:59.232Z,3.70
2019-03-27T11:47:31.662Z,3.15
2019-03-27T11:50:01.744Z,2.90
2019-03-27T11:52:31.842Z,2.90
2019-03-27T11:55:01.957Z,3.15
2019-03-27T11:57:32.336Z,2.65
2019-03-27T12:00:04.460Z,2.90
2019-03-27T12:02:35.279Z,3.10
2019-03-27T12:05:06.364Z,2.92
2019-03-27T12:07:36.420Z,2.83
2019-03-27T12:10:07.387Z,3.25
2019-03-27T12:12:37.529Z,2.85
2019-03-27T12:15:08.075Z,2.67
2019-03-27T12:17:42.059Z,2.52
2019-03-27T12:20:11.928Z,2.85
2019-03-27T12:22:41.976Z,1.62
2019-03-27T12:25:12.113Z,2.27
2019-03-27T12:27:42.185Z,2.20
2019-03-27T12:30:12.429Z,2.37
2019-03-27T12:32:42.508Z,1.82
2019-03-27T12:35:12.662Z,2.40
2019-03-27T12:37:45.044Z,2.22
2019-03-27T12:40:15.129Z,1.85
2019-03-27T12:42:45.203Z,2.05
2019-03-27T12:45:15.407Z,2.00
2019-03-27T12:47:45.446Z,2.27
2019-03-27T12:50:15.932Z,2.45
2019-03-27T12:52:46.002Z,2.65
2019-03-27T12:55:16.754Z,2.60
2019-03-27T12:57:46.808Z,2.62
2019-03-27T13:00:17.141Z,3.27
2019-03-27T13:02:47.202Z,2.47
2019-03-27T13:05:17.271Z,2.37
2019-03-27T13:07:50.277Z,2.60
2019-03-27T13:10:19.078Z,2.40
2019-03-27T13:12:49.134Z,2.12
2019-03-27T13:15:19.163Z,2.62
2019-03-27T13:17:49.256Z,2.17
2019-03-27T13:20:19.544Z,2.35
2019-03-27T13:22:49.655Z,2.08
2019-03-27T13:25:19.705Z,1.90
2019-03-27T13:27:49.732Z,1.80
2019-03-27T13:30:22.151Z,2.37
2019-03-27T13:32:52.215Z,2.65
2019-03-27T13:35:22.510Z,2.47
2019-03-27T13:37:52.661Z,2.05
2019-03-27T13:40:24.330Z,1.95
2019-03-27T13:42:54.386Z,2.08
2019-03-27T13:45:24.426Z,1.80
2019-03-27T13:47:54.583Z,1.15
2019-03-27T13:50:27.624Z,1.05
2019-03-27T13:52:59.142Z,2.27
2019-03-27T13:55:29.193Z,2.00
2019-03-27T13:57:59.252Z,2.00
2019-03-27T14:00:29.284Z,2.62
2019-03-27T14:02:59.339Z,2.22
2019-03-27T14:05:29.358Z,2.60
2019-03-27T14:07:59.389Z,2.37
2019-03-27T14:10:29.549Z,2.15
2019-03-27T14:12:59.587Z,2.90
2019-03-27T14:15:30.867Z,2.40
2019-03-27T14:18:00.918Z,2.15
2019-03-27T14:20:32.125Z,1.80
2019-03-27T14:23:02.156Z,1.55
2019-03-27T14:25:32.284Z,1.90
2019-03-27T14:28:02.338Z,2.10
2019-03-27T14:31:03.198Z,1.65
2019-03-27T14:33:33.354Z,1.90
2019-03-27T14:36:03.436Z,1.60
2019-03-27T14:38:33.529Z,1.70
2019-03-27T14:41:03.571Z,1.67
2019-03-27T14:43:33.631Z,1.60
2019-03-27T14:46:03.714Z,1.27
2019-03-27T14:48:33.856Z,1.72
2019-03-27T14:51:05.581Z,1.72
2019-03-27T14:53:35.637Z,1.70
2019-03-27T14:56:05.702Z,1.50
2019-03-27T14:58:37.779Z,1.67
2019-03-27T15:01:07.841Z,1.62
2019-03-27T15:03:38.053Z,1.40
2019-03-27T15:06:09.334Z,1.55
2019-03-27T15:08:39.407Z,1.70
2019-03-27T15:11:09.475Z,1.80
2019-03-27T15:13:39.539Z,1.62
2019-03-27T15:16:09.606Z,1.60
2019-03-27T15:18:39.636Z,1.72
2019-03-27T15:21:09.787Z,1.65
2019-03-27T15:23:39.838Z,1.40
2019-03-27T15:26:09.867Z,1.62
2019-03-27T15:28:39.890Z,1.17
2019-03-27T15:31:20.471Z,1.72
2019-03-27T15:33:42.025Z,1.70
2019-03-27T15:36:12.203Z,1.80
2019-03-27T15:38:42.222Z,1.80
2019-03-27T15:41:12.297Z,1.85
2019-03-27T15:43:42.379Z,1.80
2019-03-27T15:46:12.397Z,2.10
2019-03-27T15:48:42.925Z,2.15
2019-03-27T15:51:14.189Z,2.22
2019-03-27T15:53:47.206Z,2.62
2019-03-27T15:56:15.922Z,2.20
2019-03-27T15:58:51.150Z,1.82
2019-03-27T16:01:21.278Z,1.90
2019-03-27T16:03:51.444Z,2.45
2019-03-27T16:06:21.544Z,2.33
2019-03-27T16:08:51.649Z,2.65
2019-03-27T16:11:21.785Z,2.80
2019-03-27T16:13:52.084Z,2.90
2019-03-27T16:16:22.297Z,2.83
2019-03-27T16:18:53.122Z,3.55
2019-03-27T16:21:23.346Z,3.10
2019-03-27T16:24:05.926Z,3.87
2019-03-27T16:26:25.275Z,3.45
2019-03-27T16:28:55.372Z,2.83
2019-03-27T16:31:25.540Z,2.20
2019-03-27T16:33:55.741Z,2.42
2019-03-27T16:36:25.970Z,2.72
2019-03-27T16:38:56.162Z,2.37
2019-03-27T16:41:26.412Z,2.47
2019-03-27T16:43:56.557Z,2.37
2019-03-27T16:46:26.795Z,2.15
2019-03-27T16:48:57.071Z,2.50
2019-03-27T16:51:27.212Z,2.25
2019-03-27T16:53:57.372Z,2.58
2019-03-27T16:56:27.409Z,3.27
2019-03-27T16:58:57.493Z,1.82
2019-03-27T17:01:27.525Z,2.90
2019-03-27T17:03:57.568Z,2.52
2019-03-27T17:06:27.636Z,2.47
2019-03-27T17:08:57.663Z,2.85
2019-03-27T17:11:27.718Z,2.40
2019-03-27T17:13:57.821Z,2.60
2019-03-27T17:16:27.848Z,2.72
2019-03-27T17:18:57.926Z,2.40
2019-03-27T17:21:28.030Z,3.75
2019-03-27T17:23:58.092Z,2.70
2019-03-27T17:26:28.171Z,2.70
2019-03-27T17:28:58.301Z,3.08
2019-03-27T17:31:28.389Z,3.02
2019-03-27T17:33:58.429Z,2.65
2019-03-27T17:36:30.758Z,2.72
2019-03-27T17:39:00.898Z,2.75
2019-03-27T17:41:30.927Z,3.05
2019-03-27T17:44:00.953Z,3.37
2019-03-27T17:46:31.015Z,3.87
2019-03-27T17:49:01.095Z,3.40
2019-03-27T17:51:31.145Z,3.40
2019-03-27T17:54:01.153Z,3.83
2019-03-27T17:56:31.253Z,3.50
2019-03-27T17:59:03.603Z,3.58
2019-03-27T18:01:33.654Z,3.10
2019-03-27T18:04:03.711Z,3.55
2019-03-27T18:06:33.789Z,3.22
2019-03-27T18:09:05.214Z,3.85
2019-03-27T18:11:35.272Z,3.52
2019-03-27T18:14:05.366Z,4.28
2019-03-27T18:16:35.469Z,3.72
2019-03-27T18:19:05.498Z,3.98
2019-03-27T18:21:35.546Z,3.50
2019-03-27T18:24:05.622Z,4.78
2019-03-27T18:26:35.714Z,3.72
2019-03-27T18:29:05.739Z,3.80
2019-03-27T18:31:35.807Z,3.47
2019-03-27T18:34:05.846Z,3.33
2019-03-27T18:36:35.923Z,3.33
2019-03-27T18:39:08.859Z,2.95
2019-03-27T18:41:38.915Z,3.12
2019-03-27T18:44:08.945Z,3.37
2019-03-27T18:46:38.985Z,2.60
2019-03-27T18:49:10.628Z,3.70
2019-03-27T18:51:40.843Z,3.10
2019-03-27T18:54:10.956Z,2.70
2019-03-27T18:56:41.047Z,3.65
2019-03-27T18:59:11.116Z,4.60
2019-03-27T19:01:41.177Z,3.33
2019-03-27T19:04:11.231Z,2.98
2019-03-27T19:06:41.340Z,3.85
2019-03-27T19:09:12.959Z,3.98
2019-03-27T19:11:43.133Z,3.13
2019-03-27T19:14:13.231Z,3.92
2019-03-27T19:16:43.370Z,3.63
2019-03-27T19:19:13.476Z,4.22
2019-03-27T19:21:43.606Z,2.93
2019-03-27T19:24:16.826Z,3.85
2019-03-27T19:26:45.603Z,3.80
2019-03-27T19:29:15.673Z,3.98
2019-03-27T19:31:45.760Z,3.72
2019-03-27T19:34:17.518Z,3.80
2019-03-27T19:36:47.629Z,4.35
2019-03-27T19:39:18.008Z,3.70
2019-03-27T19:41:48.100Z,4.40
2019-03-27T19:44:18.244Z,5.25
2019-03-27T19:46:49.212Z,4.50
2019-03-27T19:49:19.371Z,4.55
2019-03-27T19:51:49.559Z,4.85
2019-03-27T19:54:27.128Z,4.43
2019-03-27T19:56:53.100Z,4.53
2019-03-27T19:59:23.205Z,4.03
2019-03-27T20:01:53.297Z,4.30
2019-03-27T20:04:23.410Z,4.72
2019-03-27T20:06:53.507Z,5.47
2019-03-27T20:09:26.715Z,5.07
2019-03-27T20:11:56.876Z,5.45
2019-03-27T20:14:26.979Z,5.17
2019-03-27T20:16:57.062Z,4.95
2019-03-27T20:19:27.127Z,5.53
2019-03-27T20:21:57.242Z,5.83
2019-03-27T20:24:40.177Z,5.80
2019-03-27T20:26:59.075Z,4.78
2019-03-27T20:29:29.159Z,4.47
2019-03-27T20:32:01.254Z,5.40
2019-03-27T20:34:31.347Z,4.53
2019-03-27T20:37:01.438Z,6.43
2019-03-27T20:39:31.544Z,5.87
2019-03-27T20:42:01.654Z,5.30
2019-03-27T20:44:31.785Z,5.33
2019-03-27T20:47:01.889Z,5.33
2019-03-27T20:49:31.962Z,5.07
2019-03-27T20:52:02.015Z,5.80
2019-03-27T20:54:32.106Z,7.00
2019-03-27T20:57:02.248Z,6.40
2019-03-27T20:59:32.287Z,5.07
2019-03-27T21:02:02.355Z,5.57
2019-03-27T21:04:32.472Z,6.30
2019-03-27T21:07:02.510Z,5.83
2019-03-27T21:09:32.553Z,5.93
2019-03-27T21:12:02.648Z,5.47
2019-03-27T21:14:32.689Z,5.30
2019-03-27T21:17:02.738Z,5.23
2019-03-27T21:19:35.954Z,5.80
2019-03-27T21:22:04.483Z,6.73
2019-03-27T21:24:34.526Z,6.97
2019-03-27T21:27:06.874Z,6.73
2019-03-27T21:29:37.250Z,4.83
2019-03-27T21:32:07.351Z,6.80
2019-03-27T21:34:37.432Z,7.10
2019-03-27T21:37:07.510Z,5.97
2019-03-27T21:39:37.574Z,6.73
2019-03-27T21:42:07.650Z,6.77
2019-03-27T21:44:37.794Z,4.73
2019-03-27T21:47:07.843Z,6.73
2019-03-27T21:49:37.999Z,6.93
2019-03-27T21:52:08.086Z,7.17
2019-03-27T21:54:38.172Z,5.53
2019-03-27T21:57:08.296Z,6.37
2019-03-27T21:59:38.425Z,7.30
2019-03-27T22:02:08.967Z,6.67
2019-03-27T22:04:39.091Z,6.70
2019-03-27T22:07:09.184Z,7.03
2019-03-27T22:09:39.275Z,6.17
2019-03-27T22:12:09.326Z,7.17
2019-03-27T22:14:39.449Z,6.40
2019-03-27T22:17:09.532Z,5.80
2019-03-27T22:19:40.035Z,7.10
2019-03-27T22:22:10.089Z,8.83
2019-03-27T22:24:40.205Z,6.80
2019-03-27T22:27:10.228Z,6.23
2019-03-27T22:29:40.306Z,7.10
2019-03-27T22:32:10.374Z,7.73
2019-03-27T22:34:44.222Z,8.67
2019-03-27T22:37:13.511Z,8.30
2019-03-27T22:39:44.030Z,8.23
2019-03-27T22:42:14.056Z,7.97
2019-03-27T22:44:44.152Z,9.23
2019-03-27T22:47:14.230Z,7.27
2019-03-27T22:49:44.254Z,9.17
2019-03-27T22:52:14.326Z,8.00
2019-03-27T22:54:44.367Z,9.33
2019-03-27T22:57:15.522Z,9.27
2019-03-27T22:59:45.579Z,7.07
2019-03-27T23:02:15.834Z,7.63
2019-03-27T23:04:45.864Z,8.30
2019-03-27T23:07:15.937Z,9.47
2019-03-27T23:09:46.008Z,8.90
2019-03-27T23:12:16.084Z,9.23
2019-03-27T23:14:46.206Z,8.03
2019-03-27T23:17:19.282Z,7.23
2019-03-27T23:19:51.291Z,8.77
2019-03-27T23:22:21.088Z,7.90
2019-03-27T23:24:51.150Z,7.97
2019-03-27T23:27:21.207Z,6.90
2019-03-27T23:29:51.299Z,7.67
2019-03-27T23:32:22.372Z,6.83
2019-03-27T23:34:52.452Z,7.80
2019-03-27T23:37:23.050Z,7.70
2019-03-27T23:39:53.179Z,6.53
2019-03-27T23:42:23.214Z,7.80
2019-03-27T23:44:53.285Z,6.93
2019-03-27T23:47:24.542Z,6.37
2019-03-27T23:49:54.610Z,7.50
2019-03-27T23:52:24.770Z,6.90
2019-03-27T23:54:54.811Z,6.90
2019-03-27T23:57:24.912Z,7.67
2019-03-27T23:59:56.806Z,7.37
